createdAt,value
2022-11-22T00:04:24.196Z,96658.53
2022-11-22T00:06:52.928Z,96660.44
2022-11-22T00:09:19.740Z,96659.09
2022-11-22T00:11:46.531Z,96656.59
2022-11-22T00:14:13.317Z,96659.91
2022-11-22T00:16:40.218Z,96657.28
2022-11-22T00:19:07.010Z,96658.00
2022-11-22T00:21:33.742Z,96646.97
2022-11-22T00:24:00.627Z,96640.22
2022-11-22T00:26:27.889Z,96655.09
2022-11-22T00:28:54.619Z,96652.31
2022-11-22T00:31:21.509Z,96647.41
2022-11-22T00:33:48.255Z,96637.59
2022-11-22T00:36:17.338Z,96640.31
2022-11-22T00:38:44.736Z,96647.19
2022-11-22T00:41:11.514Z,96650.31
2022-11-22T00:43:38.986Z,96660.59
2022-11-22T00:46:05.664Z,96658.81
2022-11-22T00:48:35.912Z,96646.56
2022-11-22T00:51:02.707Z,96646.56
2022-11-22T00:53:29.423Z,96649.56
2022-11-22T00:55:56.321Z,96649.00
2022-11-22T00:58:23.065Z,96656.59
2022-11-22T01:00:56.067Z,96649.25
2022-11-22T01:03:23.450Z,96652.16
2022-11-22T01:05:50.265Z,96650.38
2022-11-22T01:08:17.127Z,96649.56
2022-11-22T01:10:43.852Z,96648.13
2022-11-22T01:13:11.942Z,96652.50
2022-11-22T01:15:38.747Z,96648.59
2022-11-22T01:18:05.659Z,96636.50
2022-11-22T01:20:32.603Z,96639.50
2022-11-22T01:22:59.447Z,96633.41
2022-11-22T01:25:26.443Z,96635.84
2022-11-22T01:27:56.058Z,96630.03
2022-11-22T01:30:22.979Z,96636.03
2022-11-22T01:32:49.754Z,96642.84
2022-11-22T01:35:16.679Z,96641.00
2022-11-22T01:37:43.507Z,96636.16
2022-11-22T01:40:10.755Z,96641.75
2022-11-22T01:42:50.402Z,96645.69
2022-11-22T01:45:29.596Z,96647.56
2022-11-22T01:48:02.331Z,96642.84
2022-11-22T01:50:30.077Z,96645.22
2022-11-22T01:52:59.998Z,96641.69
2022-11-22T01:55:26.791Z,96648.22
2022-11-22T01:57:54.043Z,96649.81
2022-11-22T02:00:21.017Z,96653.72
2022-11-22T02:02:51.519Z,96664.78
2022-11-22T02:05:19.343Z,96651.50
2022-11-22T02:08:04.924Z,96658.84
2022-11-22T02:10:36.277Z,96650.81
2022-11-22T02:13:04.160Z,96659.13
2022-11-22T02:15:31.456Z,96652.22
2022-11-22T02:17:58.284Z,96644.91
2022-11-22T02:20:25.416Z,96645.25
2022-11-22T02:23:01.304Z,96650.84
2022-11-22T02:25:37.446Z,96653.66
2022-11-22T02:28:04.994Z,96656.41
2022-11-22T02:30:31.846Z,96648.81
2022-11-22T02:32:58.795Z,96654.41
2022-11-22T02:35:26.787Z,96652.03
2022-11-22T02:38:01.609Z,96651.28
2022-11-22T02:40:30.600Z,96652.50
2022-11-22T02:45:44.566Z,96651.78
2022-11-22T02:48:25.525Z,96651.28
2022-11-22T02:51:47.299Z,96654.72
2022-11-22T02:57:25.392Z,96652.00
2022-11-22T03:02:47.037Z,96648.44
2022-11-22T03:05:17.668Z,96643.56
2022-11-22T03:08:11.563Z,96637.16
2022-11-22T03:14:04.930Z,96647.88
2022-11-22T03:16:36.974Z,96646.63
2022-11-22T03:19:19.251Z,96655.63
2022-11-22T03:24:57.970Z,96657.28
2022-11-22T03:27:49.206Z,96655.44
2022-11-22T03:30:19.457Z,96659.47
2022-11-22T03:33:14.952Z,96664.28
2022-11-22T03:35:54.827Z,96665.00
2022-11-22T03:38:33.548Z,96668.19
2022-11-22T03:41:19.570Z,96671.03
2022-11-22T03:46:49.544Z,96665.81
2022-11-22T03:50:21.491Z,96673.13
2022-11-22T03:53:50.941Z,96679.38
2022-11-22T03:56:41.879Z,96684.59
2022-11-22T03:59:23.734Z,96671.78
2022-11-22T04:01:51.690Z,96675.56
2022-11-22T04:04:46.527Z,96684.13
2022-11-22T04:07:33.542Z,96686.03
2022-11-22T04:10:38.570Z,96690.19
2022-11-22T04:13:19.704Z,96687.28
2022-11-22T04:18:51.641Z,96685.84
2022-11-22T04:21:49.042Z,96687.72
2022-11-22T04:25:37.305Z,96688.38
2022-11-22T04:27:32.510Z,96691.09
2022-11-22T04:30:42.361Z,96693.16
2022-11-22T04:39:15.475Z,96705.28
2022-11-22T04:45:07.049Z,96706.50
2022-11-22T04:50:59.119Z,96724.28
2022-11-22T04:55:36.869Z,96725.00
2022-11-22T04:58:04.111Z,96728.97
2022-11-22T05:00:31.506Z,96733.03
2022-11-22T05:02:59.292Z,96737.72
2022-11-22T05:05:27.399Z,96735.63
2022-11-22T05:07:54.419Z,96749.97
2022-11-22T05:10:26.117Z,96754.31
2022-11-22T05:12:53.565Z,96755.78
2022-11-22T05:15:20.646Z,96760.38
2022-11-22T05:17:47.664Z,96752.66
2022-11-22T05:20:15.175Z,96756.63
2022-11-22T05:23:00.573Z,96755.06
2022-11-22T05:25:28.168Z,96758.69
2022-11-22T05:27:55.475Z,96762.00
2022-11-22T05:30:22.633Z,96773.03
2022-11-22T05:32:50.132Z,96777.09
2022-11-22T05:35:17.023Z,96784.06
2022-11-22T05:37:43.920Z,96783.44
2022-11-22T05:40:11.677Z,96790.28
2022-11-22T05:42:38.626Z,96784.88
2022-11-22T05:45:05.870Z,96792.81
2022-11-22T05:47:36.533Z,96786.22
2022-11-22T05:50:04.081Z,96784.78
2022-11-22T05:52:31.051Z,96796.22
2022-11-22T05:54:58.313Z,96792.81
2022-11-22T05:57:25.389Z,96791.44
2022-11-22T05:59:52.415Z,96802.66
2022-11-22T06:02:19.437Z,96801.69
2022-11-22T06:04:46.558Z,96805.06
2022-11-22T06:07:13.502Z,96802.34
2022-11-22T06:09:40.443Z,96810.25
2022-11-22T06:12:07.616Z,96800.47
2022-11-22T06:14:39.959Z,96797.78
2022-11-22T06:17:09.734Z,96790.09
2022-11-22T06:19:36.895Z,96791.31
2022-11-22T06:22:04.170Z,96792.16
2022-11-22T06:24:31.129Z,96800.03
2022-11-22T06:26:58.021Z,96802.44
2022-11-22T06:29:25.081Z,96801.69
2022-11-22T06:31:52.086Z,96807.53
2022-11-22T06:34:19.070Z,96810.44
2022-11-22T06:36:46.747Z,96813.03
2022-11-22T06:39:13.965Z,96820.84
2022-11-22T06:41:40.845Z,96817.22
2022-11-22T06:44:09.825Z,96815.44
2022-11-22T06:46:37.806Z,96815.88
2022-11-22T06:49:04.612Z,96805.69
2022-11-22T06:51:32.822Z,96812.75
2022-11-22T06:53:59.933Z,96817.97
2022-11-22T06:56:29.812Z,96816.09
2022-11-22T06:58:57.831Z,96809.78
2022-11-22T07:01:28.931Z,96830.44
2022-11-22T07:03:58.694Z,96831.00
2022-11-22T07:06:31.539Z,96827.25
2022-11-22T07:08:59.508Z,96833.91
2022-11-22T07:11:27.295Z,96835.91
2022-11-22T07:13:57.298Z,96824.16
2022-11-22T07:16:27.843Z,96823.69
2022-11-22T07:18:54.713Z,96814.75
2022-11-22T07:21:25.059Z,96816.81
2022-11-22T07:23:53.959Z,96811.72
2022-11-22T07:26:22.849Z,96812.66
2022-11-22T07:28:49.859Z,96816.47
2022-11-22T07:31:18.529Z,96822.59
2022-11-22T07:33:45.946Z,96809.75
2022-11-22T07:36:18.416Z,96815.25
2022-11-22T07:38:46.019Z,96812.94
2022-11-22T07:41:13.162Z,96803.03
2022-11-22T07:43:39.999Z,96805.72
2022-11-22T07:46:18.012Z,96811.44
2022-11-22T07:48:44.901Z,96818.06
2022-11-22T07:51:12.092Z,96815.50
2022-11-22T07:53:38.968Z,96807.88
2022-11-22T07:56:06.703Z,96803.41
2022-11-22T07:58:35.359Z,96797.72
2022-11-22T08:01:14.093Z,96792.88
2022-11-22T08:03:42.264Z,96793.84
2022-11-22T08:06:10.418Z,96790.06
2022-11-22T08:08:37.754Z,96793.63
2022-11-22T08:11:06.289Z,96779.16
2022-11-22T08:13:34.015Z,96773.69
2022-11-22T08:16:07.104Z,96778.53
2022-11-22T08:18:35.287Z,96776.03
2022-11-22T08:21:04.329Z,96785.25
2022-11-22T08:23:31.244Z,96787.59
2022-11-22T08:25:59.463Z,96799.03
2022-11-22T08:28:27.451Z,96791.13
2022-11-22T08:30:59.451Z,96781.91
2022-11-22T08:33:26.436Z,96769.72
2022-11-22T08:35:53.554Z,96771.94
2022-11-22T08:38:20.443Z,96783.63
2022-11-22T08:40:47.621Z,96764.53
2022-11-22T08:43:14.569Z,96767.75
2022-11-22T08:45:41.712Z,96763.13
2022-11-22T08:48:08.849Z,96778.22
2022-11-22T08:50:35.973Z,96774.25
2022-11-22T08:53:02.834Z,96766.03
2022-11-22T08:55:29.820Z,96752.41
2022-11-22T08:58:00.425Z,96761.66
2022-11-22T09:00:32.886Z,96756.69
2022-11-22T09:03:00.184Z,96750.63
2022-11-22T09:05:27.089Z,96746.63
2022-11-22T09:10:41.258Z,96731.34
2022-11-22T09:13:10.188Z,96724.16
2022-11-22T09:15:37.008Z,96719.03
2022-11-22T09:18:04.415Z,96717.50
2022-11-22T09:20:31.541Z,96708.81
2022-11-22T09:22:58.540Z,96715.69
2022-11-22T09:25:25.651Z,96719.97
2022-11-22T09:27:52.681Z,96710.94
2022-11-22T09:30:19.791Z,96703.97
2022-11-22T09:32:46.623Z,96690.25
2022-11-22T09:35:17.319Z,96688.53
2022-11-22T09:37:44.336Z,96673.31
2022-11-22T09:40:11.722Z,96667.78
2022-11-22T09:43:11.743Z,96654.13
2022-11-22T09:45:57.712Z,96635.53
2022-11-22T09:48:53.450Z,96631.31
2022-11-22T09:51:26.549Z,96626.84
2022-11-22T09:54:01.308Z,96630.88
2022-11-22T09:56:30.568Z,96626.06
2022-11-22T09:59:21.889Z,96622.94
2022-11-22T10:02:03.464Z,96623.84
2022-11-22T10:04:41.070Z,96614.97
2022-11-22T10:07:30.394Z,96616.34
2022-11-22T10:10:08.085Z,96605.38
2022-11-22T10:12:42.392Z,96609.56
2022-11-22T10:15:27.883Z,96600.16
2022-11-22T10:17:57.527Z,96591.66
2022-11-22T10:20:30.628Z,96587.72
2022-11-22T10:22:59.023Z,96585.25
2022-11-22T10:25:48.824Z,96579.50
2022-11-22T10:28:19.708Z,96580.06
2022-11-22T10:31:05.095Z,96578.25
2022-11-22T10:33:39.966Z,96568.13
2022-11-22T10:36:28.832Z,96566.81
2022-11-22T10:39:21.138Z,96556.47
2022-11-22T10:41:54.042Z,96562.06
2022-11-22T10:44:46.400Z,96560.91
2022-11-22T10:47:57.089Z,96572.94
2022-11-22T10:50:46.154Z,96556.13
2022-11-22T10:53:31.456Z,96550.50
2022-11-22T10:56:08.094Z,96559.66
2022-11-22T10:58:34.926Z,96545.16
2022-11-22T11:01:25.218Z,96565.56
2022-11-22T11:03:58.432Z,96562.81
2022-11-22T11:07:15.542Z,96558.06
2022-11-22T11:12:58.935Z,96559.38
2022-11-22T11:15:50.167Z,96563.00
2022-11-22T11:18:27.987Z,96554.91
2022-11-22T11:20:55.100Z,96548.31
2022-11-22T11:23:22.203Z,96551.47
2022-11-22T11:25:51.373Z,96559.53
2022-11-22T11:28:23.119Z,96554.06
2022-11-22T11:31:07.112Z,96540.84
2022-11-22T11:33:38.388Z,96540.19
2022-11-22T11:36:24.558Z,96533.25
2022-11-22T11:38:55.942Z,96539.50
2022-11-22T11:41:29.765Z,96543.09
2022-11-22T11:43:59.389Z,96541.47
2022-11-22T11:46:28.719Z,96536.72
2022-11-22T11:49:17.011Z,96545.78
2022-11-22T11:51:53.857Z,96537.22
2022-11-22T11:54:24.213Z,96536.38
2022-11-22T11:57:03.669Z,96521.41
2022-11-22T11:59:39.502Z,96517.13
2022-11-22T12:02:28.348Z,96514.97
2022-11-22T12:05:26.717Z,96507.56
2022-11-22T12:07:53.706Z,96512.66
2022-11-22T12:10:36.171Z,96507.25
2022-11-22T12:13:30.289Z,96515.16
2022-11-22T12:16:24.573Z,96517.47
2022-11-22T12:19:00.606Z,96505.63
2022-11-22T12:21:41.979Z,96500.03
2022-11-22T12:24:43.153Z,96497.72
2022-11-22T12:27:05.582Z,96504.13
2022-11-22T12:29:39.070Z,96498.53
2022-11-22T12:32:14.155Z,96494.75
2022-11-22T12:34:53.501Z,96504.31
2022-11-22T12:37:48.574Z,96508.28
2022-11-22T12:40:27.869Z,96499.69
2022-11-22T12:43:05.629Z,96501.03
2022-11-22T12:45:38.295Z,96507.09
2022-11-22T12:48:12.898Z,96515.03
2022-11-22T12:51:03.505Z,96500.03
2022-11-22T12:53:38.543Z,96507.44
2022-11-22T12:56:34.022Z,96493.59
2022-11-22T12:59:29.525Z,96490.47
2022-11-22T13:02:05.830Z,96483.88
2022-11-22T13:04:46.034Z,96478.59
2022-11-22T13:07:22.419Z,96479.25
2022-11-22T13:09:57.128Z,96480.72
2022-11-22T13:12:33.765Z,96477.25
2022-11-22T13:15:01.974Z,96464.44
2022-11-22T13:17:35.130Z,96463.44
2022-11-22T13:20:43.453Z,96457.34
2022-11-22T13:23:28.611Z,96448.28
2022-11-22T13:26:19.043Z,96446.31
2022-11-22T13:28:47.070Z,96455.69
2022-11-22T13:31:16.626Z,96446.78
2022-11-22T13:33:59.156Z,96462.09
2022-11-22T13:36:32.458Z,96452.22
2022-11-22T13:39:02.377Z,96456.81
2022-11-22T13:41:35.196Z,96464.91
2022-11-22T13:44:24.877Z,96463.91
2022-11-22T13:47:15.237Z,96469.31
2022-11-22T13:49:48.690Z,96462.06
2022-11-22T13:52:16.211Z,96454.31
2022-11-22T13:54:56.531Z,96453.50
2022-11-22T13:57:38.191Z,96452.84
2022-11-22T14:00:14.347Z,96447.22
2022-11-22T14:02:46.197Z,96445.25
2022-11-22T14:05:21.467Z,96431.13
2022-11-22T14:07:59.642Z,96436.38
2022-11-22T14:10:41.848Z,96430.13
2022-11-22T14:13:29.698Z,96430.28
2022-11-22T14:16:03.154Z,96427.16
2022-11-22T14:18:57.242Z,96432.06
2022-11-22T14:21:54.898Z,96438.81
2022-11-22T14:24:37.030Z,96448.19
2022-11-22T14:27:23.896Z,96461.34
2022-11-22T14:30:15.538Z,96474.31
2022-11-22T14:32:49.482Z,96489.78
2022-11-22T14:35:29.278Z,96482.88
2022-11-22T14:38:00.067Z,96492.75
2022-11-22T14:40:41.420Z,96491.22
2022-11-22T14:43:11.368Z,96514.97
2022-11-22T14:45:43.832Z,96508.47
2022-11-22T14:48:16.604Z,96501.69
2022-11-22T14:50:48.789Z,96515.84
2022-11-22T14:53:44.138Z,96526.34
2022-11-22T14:56:14.075Z,96509.25
2022-11-22T14:59:03.589Z,96513.53
2022-11-22T15:01:58.644Z,96518.56
2022-11-22T15:09:18.823Z,96535.25
2022-11-22T15:09:23.701Z,96526.81
2022-11-22T15:10:43.128Z,96519.53
2022-11-22T15:13:23.416Z,96518.28
2022-11-22T15:57:38.718Z,96438.22
2022-11-22T16:00:26.848Z,96434.25
2022-11-22T16:03:08.273Z,96440.78
2022-11-22T16:06:07.663Z,96443.78
2022-11-22T16:08:32.840Z,96441.69
2022-11-22T16:11:04.502Z,96435.84
2022-11-22T16:13:43.963Z,96437.81
2022-11-22T16:16:24.341Z,96445.22
2022-11-22T16:19:37.496Z,96431.28
2022-11-22T16:22:35.757Z,96430.63
2022-11-22T16:25:36.820Z,96435.97
2022-11-22T16:28:43.949Z,96418.75
2022-11-22T16:31:59.978Z,96419.06
2022-11-22T16:34:34.050Z,96435.72
2022-11-22T16:37:14.246Z,96432.28
2022-11-22T16:39:51.048Z,96451.28
2022-11-22T16:42:21.343Z,96438.44
2022-11-22T16:44:57.281Z,96452.25
2022-11-22T16:47:38.415Z,96457.81
2022-11-22T16:50:33.323Z,96453.16
2022-11-22T16:53:02.845Z,96450.38
2022-11-22T16:55:31.304Z,96462.63
2022-11-22T16:58:17.010Z,96459.13
2022-11-22T17:01:00.631Z,96460.47
2022-11-22T17:03:41.681Z,96460.47
2022-11-22T17:06:19.278Z,96452.63
2022-11-22T17:09:10.004Z,96450.47
2022-11-22T17:11:42.133Z,96439.56
2022-11-22T17:14:50.431Z,96421.25
2022-11-22T17:18:10.968Z,96412.69
2022-11-22T17:20:46.258Z,96396.91
2022-11-22T17:23:39.394Z,96411.25
2022-11-22T17:26:16.897Z,96420.63
2022-11-22T17:29:42.897Z,96400.53
2022-11-22T17:31:43.462Z,96381.31
2022-11-22T17:34:20.181Z,96390.53
2022-11-22T17:36:50.932Z,96386.59
2022-11-22T17:39:18.960Z,96392.72
2022-11-22T17:41:49.296Z,96396.00
2022-11-22T17:44:21.634Z,96382.34
2022-11-22T17:46:52.374Z,96384.25
2022-11-22T17:49:20.729Z,96369.03
2022-11-22T17:52:01.126Z,96375.03
2022-11-22T17:57:41.880Z,96349.16
2022-11-22T18:00:11.806Z,96348.69
2022-11-22T18:02:46.332Z,96356.75
2022-11-22T18:05:29.533Z,96354.31
2022-11-22T18:08:12.360Z,96364.16
2022-11-22T18:10:51.090Z,96353.84
2022-11-22T18:13:24.302Z,96339.53
2022-11-22T18:16:01.650Z,96322.44
2022-11-22T18:18:57.396Z,96306.47
2022-11-22T18:21:39.129Z,96309.22
2022-11-22T18:24:13.327Z,96315.19
2022-11-22T18:26:53.998Z,96327.88
2022-11-22T18:30:16.641Z,96340.84
2022-11-22T18:33:04.574Z,96342.97
2022-11-22T18:38:24.213Z,96328.81
2022-11-22T18:40:52.594Z,96312.41
2022-11-22T18:43:19.538Z,96308.28
2022-11-22T18:45:46.392Z,96303.69
2022-11-22T18:48:14.172Z,96287.72
2022-11-22T18:50:41.197Z,96278.00
2022-11-22T18:53:08.461Z,96265.34
2022-11-22T18:55:35.481Z,96261.72
2022-11-22T18:58:02.719Z,96249.06
2022-11-22T19:00:29.840Z,96262.88
2022-11-22T19:02:57.322Z,96258.28
2022-11-22T19:05:24.712Z,96238.41
2022-11-22T19:07:51.700Z,96227.50
2022-11-22T19:10:18.723Z,96217.47
2022-11-22T19:12:46.313Z,96196.09
2022-11-22T19:15:18.013Z,96202.69
2022-11-22T19:17:45.711Z,96193.31
2022-11-22T19:20:47.196Z,96204.34
2022-11-22T19:23:23.986Z,96201.69
2022-11-22T19:26:04.635Z,96207.44
2022-11-22T19:28:58.423Z,96192.13
2022-11-22T19:31:32.099Z,96192.78
2022-11-22T19:34:01.676Z,96206.63
2022-11-22T19:36:43.541Z,96209.25
2022-11-22T19:39:15.303Z,96225.38
2022-11-22T19:41:45.394Z,96235.91
2022-11-22T19:44:22.926Z,96234.44
2022-11-22T19:46:51.349Z,96224.06
2022-11-22T19:49:24.281Z,96201.69
2022-11-22T19:51:52.912Z,96196.09
2022-11-22T19:54:22.745Z,96176.00
2022-11-22T19:56:51.860Z,96187.19
2022-11-22T19:59:19.952Z,96193.78
2022-11-22T20:01:48.244Z,96205.94
2022-11-22T20:04:17.230Z,96211.22
2022-11-22T20:06:50.112Z,96202.16
2022-11-22T20:09:18.065Z,96196.59
2022-11-22T20:11:45.761Z,96211.53
2022-11-22T20:14:13.075Z,96227.34
2022-11-22T20:16:43.363Z,96235.59
2022-11-22T20:19:12.637Z,96218.28
2022-11-22T20:21:40.417Z,96224.72
2022-11-22T20:24:08.427Z,96228.47
2022-11-22T20:26:38.712Z,96221.03
2022-11-22T20:29:13.424Z,96217.25
2022-11-22T20:31:45.658Z,96219.03
2022-11-22T20:34:22.861Z,96209.94
2022-11-22T20:36:52.517Z,96232.19
2022-11-22T20:39:19.622Z,96213.56
2022-11-22T20:41:46.674Z,96219.03
2022-11-22T20:44:14.234Z,96199.38
2022-11-22T20:46:42.167Z,96231.16
2022-11-22T20:52:14.300Z,96201.53
2022-11-22T20:55:04.784Z,96189.34
2022-11-22T20:57:59.204Z,96199.06
2022-11-22T21:00:41.634Z,96185.53
2022-11-22T21:03:44.958Z,96179.41
2022-11-22T21:06:25.785Z,96196.22
2022-11-22T21:09:12.953Z,96160.31
2022-11-22T21:15:24.950Z,96180.69
2022-11-22T21:24:58.493Z,96196.84
2022-11-22T21:27:23.981Z,96188.66
2022-11-22T21:29:50.986Z,96173.66
2022-11-22T21:32:18.548Z,96149.94
2022-11-22T21:34:52.370Z,96155.72
2022-11-22T21:41:10.864Z,96118.84
2022-11-22T21:43:54.517Z,96113.22
2022-11-22T21:46:21.497Z,96114.84
2022-11-22T21:49:17.731Z,96148.50
2022-11-22T21:55:01.570Z,96088.41
2022-11-22T21:57:33.074Z,96098.97
2022-11-22T22:00:01.987Z,96084.47
2022-11-22T22:02:34.042Z,96060.06
2022-11-22T22:05:17.195Z,96095.31
2022-11-22T22:11:06.519Z,96085.91
2022-11-22T22:14:14.213Z,96064.66
2022-11-22T22:17:05.110Z,96051.13
2022-11-22T22:19:40.511Z,96054.44
2022-11-22T22:22:42.736Z,96021.84
2022-11-22T22:28:18.855Z,96025.75
2022-11-22T22:30:53.513Z,96037.09
2022-11-22T22:33:48.937Z,96013.22
2022-11-22T22:36:45.086Z,96030.03
2022-11-22T22:39:34.539Z,96038.75
2022-11-22T22:42:09.117Z,96020.81
2022-11-22T22:44:45.909Z,96037.09
2022-11-22T22:47:23.394Z,96036.28
2022-11-22T22:50:16.442Z,96043.88
2022-11-22T22:53:12.064Z,96032.41
2022-11-22T22:56:20.048Z,96028.28
2022-11-22T22:59:06.242Z,96030.13
2022-11-22T23:01:37.622Z,96018.94
2022-11-22T23:04:13.711Z,96008.03
2022-11-22T23:07:19.991Z,96014.13
2022-11-22T23:10:51.125Z,96013.41
2022-11-22T23:19:16.047Z,96007.94
2022-11-22T23:24:46.714Z,96011.50
2022-11-22T23:30:41.080Z,95982.72
2022-11-22T23:33:27.349Z,95975.44
2022-11-22T23:33:52.914Z,95999.66
2022-11-22T23:36:15.753Z,95974.94
2022-11-22T23:42:19.852Z,95969.56
2022-11-22T23:44:56.720Z,95962.66
2022-11-22T23:50:19.728Z,95961.94
2022-11-22T23:52:47.873Z,95970.38
2022-11-22T23:58:35.635Z,95965.09
